Time;durP1;ratioP1;P1;durP2;ratioP2;P2;SDS_P1;SDS_P2;PMS_P1;PMS_P2;Temp;Humidity;BMP_temperature;BMP_pressure;BME280_temperature;BME280_humidity;BME280_pressure;Samples;Min_cycle;Max_cycle;Signal;HPM_P1;HPM_P2
2023/06/15 00:00:20;;;;;;;6.22;3.10;;;;;;;20.61;41.43;99100.59;7226279;40;20249;31
2023/06/15 00:05:56;;;;;;;3.15;2.55;;;;;;;20.52;40.96;99102.00;7226820;40;20242;31
2023/06/15 00:11:31;;;;;;;6.80;2.80;;;;;;;20.56;41.52;99102.34;7250284;39;20241;31
2023/06/15 00:16:52;;;;;;;5.50;3.10;;;;;;;20.59;41.81;99099.97;7267928;39;20246;31
2023/06/15 00:22:28;;;;;;;5.60;2.90;;;;;;;20.54;41.16;99105.31;7280905;39;20241;31
2023/06/15 00:28:03;;;;;;;4.07;2.85;;;;;;;20.57;41.90;99110.34;7228397;40;20305;31
2023/06/15 00:38:44;;;;;;;3.05;2.70;;;;;;;20.49;42.20;99104.38;7250740;40;20265;31
2023/06/15 00:49:24;;;;;;;3.42;2.90;;;;;;;20.54;42.05;99116.28;7327667;39;21273;31
2023/06/15 00:55:00;;;;;;;5.85;2.85;;;;;;;20.47;42.85;99117.44;7282747;39;20256;31
2023/06/15 01:00:37;;;;;;;4.25;3.50;;;;;;;20.55;41.84;99120.69;7036180;40;20245;31
2023/06/15 01:06:13;;;;;;;3.75;2.60;;;;;;;20.54;41.70;99119.00;7235960;40;20589;31
2023/06/15 01:11:48;;;;;;;3.70;2.97;;;;;;;20.37;42.38;99118.00;7241205;40;20409;31
2023/06/15 01:17:24;;;;;;;4.40;3.20;;;;;;;20.27;42.44;99114.12;7212177;40;20273;31
2023/06/15 01:22:59;;;;;;;3.87;3.08;;;;;;;20.16;43.44;99116.56;7205053;40;20286;31
2023/06/15 01:33:40;;;;;;;3.90;3.20;;;;;;;20.18;44.03;99113.59;7238039;40;20268;31
2023/06/15 01:39:15;;;;;;;4.30;3.10;;;;;;;20.03;43.60;99115.91;7275660;39;20358;31
2023/06/15 01:44:52;;;;;;;3.37;3.08;;;;;;;19.84;43.85;99114.22;7334615;39;20248;31
2023/06/15 01:50:24;;;;;;;3.25;2.90;;;;;;;19.62;44.82;99108.38;7297664;40;20351;31
2023/06/15 02:07:05;;;;;;;4.40;3.20;;;;;;;19.39;45.20;99113.66;7291808;39;20268;31
2023/06/15 02:17:44;;;;;;;4.30;3.30;;;;;;;19.03;45.71;99109.75;7317060;39;20280;31
2023/06/15 02:23:20;;;;;;;3.40;2.94;;;;;;;19.08;46.43;99112.66;7296794;40;20324;31
2023/06/15 02:28:56;;;;;;;4.25;3.10;;;;;;;19.05;46.61;99115.81;7270064;40;20261;31
2023/06/15 02:34:32;;;;;;;6.55;3.40;;;;;;;19.01;46.38;99116.50;7238370;40;20237;31
2023/06/15 02:40:05;;;;;;;4.67;3.30;;;;;;;18.83;46.90;99111.78;7199633;40;20262;31
2023/06/15 02:45:40;;;;;;;5.47;3.40;;;;;;;18.68;46.91;99117.59;7147938;40;20264;31
2023/06/15 02:51:15;;;;;;;6.96;3.50;;;;;;;18.65;47.64;99126.22;7207890;40;20316;31
2023/06/15 02:56:53;;;;;;;3.88;3.34;;;;;;;18.66;47.77;99124.31;7216922;40;20266;31
2023/06/15 03:02:12;;;;;;;5.80;3.30;;;;;;;18.75;47.17;99129.28;7233363;39;20304;31
2023/06/15 03:07:31;;;;;;;4.72;3.55;;;;;;;18.50;47.87;99125.66;7280681;39;20260;31
2023/06/15 03:13:09;;;;;;;5.20;3.30;;;;;;;18.30;48.13;99127.66;7286961;39;20249;31
2023/06/15 03:18:43;;;;;;;3.93;3.30;;;;;;;18.32;48.49;99134.56;7267401;40;20241;31
2023/06/15 03:24:05;;;;;;;8.70;3.73;;;;;;;18.46;48.14;99143.53;7296474;40;20264;31
2023/06/15 03:29:41;;;;;;;5.90;4.00;;;;;;;18.16;49.81;99147.87;7312300;39;20252;31
2023/06/15 03:35:15;;;;;;;4.75;3.65;;;;;;;18.21;48.78;99157.06;7246837;40;20237;31
2023/06/15 03:40:51;;;;;;;3.87;3.47;;;;;;;18.43;48.83;99150.25;7277840;40;20402;31
2023/06/15 03:46:27;;;;;;;4.27;3.70;;;;;;;18.21;49.65;99157.06;7227978;40;20262;31
2023/06/15 03:52:03;;;;;;;7.00;3.80;;;;;;;18.15;49.21;99159.84;7232425;40;20339;31
2023/06/15 03:57:23;;;;;;;4.37;3.53;;;;;;;18.03;48.88;99163.22;7246477;40;20245;31
2023/06/15 04:02:58;;;;;;;6.80;3.57;;;;;;;17.89;49.33;99161.63;7256965;40;20350;31
2023/06/15 04:08:19;;;;;;;4.00;3.30;;;;;;;18.00;49.80;99163.66;7247525;40;20253;31
2023/06/15 04:13:40;;;;;;;5.67;3.57;;;;;;;18.17;48.87;99172.19;7241233;40;20242;31
2023/06/15 04:19:15;;;;;;;4.25;3.60;;;;;;;18.23;49.27;99173.25;7242194;40;20253;31
2023/06/15 04:24:36;;;;;;;5.25;3.37;;;;;;;18.21;48.81;99178.09;7223281;40;20315;31
2023/06/15 04:30:16;;;;;;;5.60;3.20;;;;;;;18.15;49.13;99178.94;7336408;39;20239;31
2023/06/15 04:35:47;;;;;;;4.60;3.20;;;;;;;18.26;49.16;99187.28;7322735;39;20259;31
2023/06/15 04:41:23;;;;;;;4.95;3.50;;;;;;;18.25;49.18;99193.81;7323742;39;20240;31
2023/06/15 04:46:46;;;;;;;3.40;3.10;;;;;;;18.23;49.84;99200.53;7290962;40;20328;31
2023/06/15 04:52:18;;;;;;;4.13;3.40;;;;;;;18.24;49.19;99202.22;7305757;39;20345;31
2023/06/15 04:57:53;;;;;;;5.90;3.50;;;;;;;18.40;49.47;99208.00;7286104;39;20257;31
2023/06/15 05:03:28;;;;;;;4.54;3.30;;;;;;;18.54;49.36;99202.53;7258835;40;20342;31
2023/06/15 05:09:05;;;;;;;6.30;3.30;;;;;;;18.65;49.45;99201.84;7244093;40;20256;31
2023/06/15 05:14:39;;;;;;;3.47;3.17;;;;;;;18.69;49.45;99201.16;7259807;40;20258;31
2023/06/15 05:20:15;;;;;;;6.17;3.10;;;;;;;18.80;49.10;99208.69;7267654;40;20376;31
2023/06/15 05:25:51;;;;;;;3.47;3.13;;;;;;;18.88;49.55;99210.31;7258933;40;20245;31
2023/06/15 05:31:11;;;;;;;3.46;3.10;;;;;;;19.09;49.19;99218.16;7280225;39;20251;31
2023/06/15 05:36:33;;;;;;;3.00;2.67;;;;;;;19.23;48.84;99218.88;7317281;39;20255;31
2023/06/15 05:42:08;;;;;;;4.10;3.20;;;;;;;19.34;49.38;99221.75;7307908;39;20343;31
2023/06/15 05:47:28;;;;;;;4.50;3.30;;;;;;;19.51;49.42;99237.63;7267492;40;20260;31
2023/06/15 05:52:49;;;;;;;4.23;2.90;;;;;;;19.61;48.78;99235.25;7307203;39;20241;31
2023/06/15 05:58:23;;;;;;;3.73;3.10;;;;;;;19.65;49.73;99239.19;7290552;39;20244;31
2023/06/15 06:03:58;;;;;;;4.30;2.80;;;;;;;19.80;48.75;99237.78;7232778;40;20276;31
2023/06/15 06:09:33;;;;;;;3.80;3.10;;;;;;;19.96;49.13;99247.31;7259162;40;20256;31
2023/06/15 06:15:05;;;;;;;7.53;3.30;;;;;;;20.11;48.11;99253.25;7258014;40;20253;31
2023/06/15 06:25:30;;;;;;;3.53;2.97;;;;;;;20.33;48.22;99255.56;7277096;40;21170;31
2023/06/15 06:31:06;;;;;;;4.00;3.10;;;;;;;20.51;47.92;99248.19;7287778;39;20268;31
2023/06/15 06:41:45;;;;;;;4.10;3.20;;;;;;;20.88;46.54;99261.84;7337814;39;21081;31
2023/06/15 06:47:23;;;;;;;4.60;3.20;;;;;;;21.19;46.18;99253.44;7330129;39;20394;31
2023/06/15 06:52:43;;;;;;;4.07;2.87;;;;;;;21.26;46.54;99251.41;7253437;40;20249;31
2023/06/15 06:58:18;;;;;;;3.72;3.03;;;;;;;21.27;45.89;99244.88;7277210;40;20236;31
2023/06/15 07:03:55;;;;;;;4.83;2.93;;;;;;;21.42;45.85;99253.47;7286031;39;20241;31
2023/06/15 07:09:16;;;;;;;7.27;3.03;;;;;;;21.65;45.67;99257.34;7256349;39;20365;31
2023/06/15 07:14:52;;;;;;;6.00;3.27;;;;;;;21.83;44.35;99262.72;7316285;39;20256;31
2023/06/15 07:20:28;;;;;;;3.90;3.40;;;;;;;22.01;43.32;99248.91;7284514;39;20510;31
2023/06/15 07:26:04;;;;;;;8.15;3.40;;;;;;;22.20;43.54;99257.88;7286704;40;20438;31
2023/06/15 07:31:40;;;;;;;6.47;3.42;;;;;;;22.37;43.26;99267.88;7303468;39;20492;31
2023/06/15 07:37:18;;;;;;;3.33;3.00;;;;;;;22.53;42.72;99251.72;7207844;40;20243;31
2023/06/15 07:42:39;;;;;;;7.57;3.25;;;;;;;22.74;42.38;99251.06;7027312;40;20362;31
2023/06/15 07:47:59;;;;;;;6.10;3.72;;;;;;;22.98;42.55;99260.94;7286004;40;20248;31
2023/06/15 07:53:37;;;;;;;3.82;3.12;;;;;;;22.96;41.60;99245.75;7298642;39;20303;31
2023/06/15 07:58:56;;;;;;;6.30;3.30;;;;;;;23.11;41.33;99255.13;7226924;40;20250;31
2023/06/15 08:04:16;;;;;;;4.53;3.33;;;;;;;23.40;41.38;99255.09;7251467;40;20298;31
2023/06/15 08:09:53;;;;;;;4.80;3.23;;;;;;;23.78;41.50;99255.25;7236488;40;20340;31
2023/06/15 08:15:30;;;;;;;6.38;3.36;;;;;;;23.85;40.91;99247.63;7262189;40;20252;31
2023/06/15 08:21:04;;;;;;;3.62;3.22;;;;;;;24.16;41.24;99255.31;7279904;39;20399;31
2023/06/15 08:26:42;;;;;;;3.80;3.10;;;;;;;24.33;40.04;99260.78;7304535;39;20279;31
2023/06/15 08:32:16;;;;;;;3.70;3.35;;;;;;;24.37;40.05;99250.06;7300003;39;20281;31
2023/06/15 08:37:52;;;;;;;4.73;3.20;;;;;;;24.50;40.51;99258.81;7291091;39;20268;31
2023/06/15 08:43:30;;;;;;;8.07;3.55;;;;;;;24.60;39.96;99266.38;7287514;40;20245;31
2023/06/15 08:49:05;;;;;;;4.03;3.40;;;;;;;24.68;39.75;99260.41;7281128;39;20271;31
2023/06/15 08:59:46;;;;;;;6.03;3.60;;;;;;;25.01;38.90;99260.28;7272929;39;20260;31
2023/06/15 09:05:07;;;;;;;3.70;3.40;;;;;;;25.26;38.88;99264.44;7232658;40;20274;31
2023/06/15 09:10:42;;;;;;;5.50;3.28;;;;;;;25.39;38.37;99262.09;7283975;39;20259;31
2023/06/15 09:16:19;;;;;;;4.12;3.40;;;;;;;25.53;37.58;99259.72;7300621;39;20252;31
2023/06/15 09:21:55;;;;;;;5.10;3.00;;;;;;;25.65;37.77;99251.31;7293365;39;20288;31
2023/06/15 09:27:31;;;;;;;3.80;3.30;;;;;;;25.92;37.79;99257.59;7290034;39;20427;31
2023/06/15 09:33:07;;;;;;;3.83;3.40;;;;;;;25.87;36.65;99252.03;7275982;39;20245;31
2023/06/15 09:38:42;;;;;;;3.70;3.22;;;;;;;25.98;37.19;99256.53;7229710;40;20269;31
2023/06/15 09:44:22;;;;;;;4.57;3.50;;;;;;;25.99;36.70;99252.66;7192880;40;20370;31
2023/06/15 09:49:59;;;;;;;5.82;3.35;;;;;;;26.18;34.31;99255.84;7207339;40;20257;31
2023/06/15 09:55:36;;;;;;;3.57;2.93;;;;;;;26.39;34.60;99257.66;7238696;40;20269;31
2023/06/15 10:01:10;;;;;;;5.55;3.25;;;;;;;26.55;34.78;99248.34;7243092;40;20297;31
2023/06/15 10:06:46;;;;;;;5.30;3.15;;;;;;;26.67;33.88;99256.44;7215173;40;20242;31
2023/06/15 10:12:20;;;;;;;4.15;3.37;;;;;;;26.83;34.08;99247.91;7233541;40;20318;31
2023/06/15 10:17:56;;;;;;;4.55;2.90;;;;;;;27.04;33.42;99248.84;7255394;40;20248;31
2023/06/15 10:23:33;;;;;;;3.33;2.72;;;;;;;27.05;32.78;99239.44;7257738;40;20329;31
2023/06/15 10:29:12;;;;;;;3.50;3.00;;;;;;;27.30;32.34;99246.97;7243331;40;20238;31
2023/06/15 10:34:47;;;;;;;3.45;2.90;;;;;;;27.40;31.40;99246.16;7238828;40;20253;31
2023/06/15 10:40:25;;;;;;;3.05;2.60;;;;;;;27.46;31.37;99243.12;7188648;40;20246;31
2023/06/15 10:46:02;;;;;;;2.90;2.60;;;;;;;27.71;30.82;99243.16;7255407;40;20509;31
2023/06/15 10:51:37;;;;;;;3.74;2.60;;;;;;;27.73;29.46;99240.94;7189026;40;20446;31
2023/06/15 10:57:14;;;;;;;4.65;2.30;;;;;;;27.89;28.94;99243.69;7230846;40;20536;31
2023/06/15 11:07:56;;;;;;;3.50;2.80;;;;;;;27.93;28.32;99242.03;7243039;39;20269;31
2023/06/15 11:18:36;;;;;;;3.80;2.60;;;;;;;27.92;28.38;99238.44;7278248;39;20264;31
2023/06/15 11:29:16;;;;;;;3.70;3.03;;;;;;;27.66;28.82;99234.84;7284190;39;20327;31
2023/06/15 11:39:56;;;;;;;6.40;2.80;;;;;;;28.25;28.05;99225.94;7287925;39;21178;31
2023/06/15 11:45:34;;;;;;;3.70;2.87;;;;;;;28.54;29.70;99232.50;7321097;39;20337;31
2023/06/15 11:51:11;;;;;;;5.40;3.30;;;;;;;28.63;29.10;99216.94;7293893;39;20328;31
2023/06/15 11:56:48;;;;;;;4.00;2.85;;;;;;;28.72;29.46;99225.53;7278114;40;20418;31
2023/06/15 12:02:24;;;;;;;5.40;2.93;;;;;;;28.50;29.44;99223.09;7277292;39;20458;31
2023/06/15 12:13:05;;;;;;;3.90;2.97;;;;;;;28.70;27.64;99204.72;7252699;40;20257;31
2023/06/15 12:23:45;;;;;;;5.00;2.90;;;;;;;28.92;28.57;99200.44;7235334;40;20276;31
2023/06/15 12:29:29;;;;;;;5.54;3.48;;;;;;;29.07;27.70;99202.31;7256808;40;20273;31
2023/06/15 12:35:03;;;;;;;4.40;3.10;;;;;;;28.95;28.01;99199.88;7251310;40;20272;31
2023/06/15 12:40:39;;;;;;;4.27;2.70;;;;;;;29.21;27.81;99197.78;7303475;39;20341;31
2023/06/15 12:46:17;;;;;;;4.65;3.00;;;;;;;29.14;27.48;99188.91;7294613;39;20385;31
2023/06/15 12:51:52;;;;;;;4.65;2.70;;;;;;;29.01;27.65;99186.78;7249253;40;20431;31
2023/06/15 12:57:13;;;;;;;4.28;2.60;;;;;;;29.31;27.06;99183.81;7268261;40;20325;31
2023/06/15 13:02:50;;;;;;;3.40;2.73;;;;;;;28.82;28.51;99177.47;7228573;40;20345;31
2023/06/15 13:08:26;;;;;;;4.25;3.00;;;;;;;28.92;28.25;99171.84;7217234;40;20245;31
2023/06/15 13:13:47;;;;;;;3.03;2.65;;;;;;;29.23;27.62;99162.19;7276622;39;20257;31
2023/06/15 13:19:23;;;;;;;6.10;2.50;;;;;;;29.23;24.77;99162.19;7287905;39;20249;31
2023/06/15 13:24:44;;;;;;;2.87;2.50;;;;;;;29.38;25.66;99156.56;7229086;40;20262;31
2023/06/15 13:30:20;;;;;;;3.85;2.85;;;;;;;29.60;26.11;99156.09;7263512;40;20260;31
2023/06/15 13:35:57;;;;;;;4.37;2.93;;;;;;;29.59;26.41;99150.81;7257043;40;20481;31
2023/06/15 13:41:31;;;;;;;30.80;3.73;;;;;;;29.44;26.46;99138.72;7256769;39;20234;31
2023/06/15 13:47:03;;;;;;;6.50;3.00;;;;;;;29.32;26.96;99143.00;7247875;40;20438;31
2023/06/15 13:52:40;;;;;;;4.20;2.65;;;;;;;29.54;26.31;99146.13;7267659;39;20257;31
2023/06/15 13:58:02;;;;;;;3.47;2.80;;;;;;;29.54;25.78;99148.91;7244001;40;20272;31
2023/06/15 14:03:39;;;;;;;6.35;2.55;;;;;;;29.60;24.97;99152.47;7289917;39;20378;31
2023/06/15 14:09:13;;;;;;;3.00;2.70;;;;;;;29.05;25.37;99138.72;7219226;40;20249;31
2023/06/15 14:14:48;;;;;;;4.05;2.65;;;;;;;28.98;26.03;99140.19;7232099;40;20335;31
2023/06/15 14:20:23;;;;;;;3.70;2.50;;;;;;;29.21;26.19;99135.84;7243057;40;20443;31
2023/06/15 14:25:59;;;;;;;2.78;2.58;;;;;;;29.25;25.79;99140.53;7075408;40;20249;31
2023/06/15 14:31:32;;;;;;;3.15;2.40;;;;;;;29.51;24.96;99144.78;7199482;40;20273;31
2023/06/15 14:37:08;;;;;;;2.60;2.40;;;;;;;29.24;25.89;99135.25;7180901;40;20329;31
2023/06/15 14:42:46;;;;;;;2.40;2.12;;;;;;;28.89;26.78;99141.91;7201304;40;20272;31
2023/06/15 14:48:20;;;;;;;2.47;2.27;;;;;;;28.64;26.73;99138.16;7164493;40;20274;31
2023/06/15 14:53:40;;;;;;;3.55;2.40;;;;;;;28.40;27.85;99139.06;7208394;40;20269;31
2023/06/15 14:59:16;;;;;;;2.90;2.50;;;;;;;28.39;26.85;99129.94;7273244;39;20543;31
2023/06/15 15:09:58;;;;;;;3.12;2.50;;;;;;;28.34;27.27;99135.53;7246365;40;20280;31
2023/06/15 15:15:33;;;;;;;17.24;3.10;;;;;;;28.54;27.01;99123.47;7233592;40;20274;31
2023/06/15 15:20:59;;;;;;;3.00;2.70;;;;;;;28.76;27.81;99131.44;7256033;40;20257;31
2023/06/15 15:26:29;;;;;;;6.30;2.92;;;;;;;28.78;27.90;99127.28;7217481;40;20257;31
2023/06/15 15:32:06;;;;;;;5.45;2.20;;;;;;;28.64;26.96;99126.22;7216449;40;20246;31
2023/06/15 15:37:40;;;;;;;5.37;2.40;;;;;;;28.53;27.94;99125.41;7229055;40;20425;31
2023/06/15 15:43:15;;;;;;;2.75;2.33;;;;;;;28.43;28.36;99124.66;7259959;40;20262;31
2023/06/15 15:48:51;;;;;;;3.33;2.57;;;;;;;28.29;28.56;99124.44;7269804;40;21133;31
2023/06/15 15:54:12;;;;;;;3.68;2.62;;;;;;;28.28;28.43;99119.19;7288106;39;20319;31
2023/06/15 15:59:44;;;;;;;4.35;2.45;;;;;;;28.16;28.10;99122.28;7281721;39;20257;31
2023/06/15 16:05:21;;;;;;;4.05;2.35;;;;;;;28.12;29.42;99123.97;7278443;39;20255;31
2023/06/15 16:10:56;;;;;;;5.40;2.34;;;;;;;27.94;27.98;99125.37;7287314;39;20307;31
2023/06/15 16:16:17;;;;;;;5.12;2.75;;;;;;;27.92;28.99;99123.97;7266375;40;20277;31
2023/06/15 16:21:52;;;;;;;2.80;2.55;;;;;;;27.95;28.94;99115.13;7239869;40;20344;31
2023/06/15 16:27:13;;;;;;;3.40;2.30;;;;;;;27.89;28.07;99113.47;7267542;40;20292;31
2023/06/15 16:37:53;;;;;;;3.33;2.50;;;;;;;28.31;28.12;99101.97;7347675;39;20295;31
2023/06/15 16:48:33;;;;;;;3.65;2.55;;;;;;;27.82;27.20;99110.16;7360933;39;20271;31
2023/06/15 16:54:09;;;;;;;4.07;2.67;;;;;;;27.83;28.25;99109.87;7340444;39;20423;31
2023/06/15 17:04:49;;;;;;;4.95;2.90;;;;;;;27.77;28.87;99111.84;7316376;39;20410;31
2023/06/15 17:10:24;;;;;;;4.22;2.62;;;;;;;27.67;28.52;99108.25;7262210;40;20328;31
2023/06/15 17:15:58;;;;;;;3.20;2.80;;;;;;;27.50;28.79;99125.19;7268627;40;20315;31
2023/06/15 17:21:33;;;;;;;4.53;2.70;;;;;;;27.49;29.02;99122.69;7292346;39;20327;31
2023/06/15 17:27:07;;;;;;;4.58;2.80;;;;;;;27.32;28.15;99109.94;7269265;40;20323;31
2023/06/15 17:32:28;;;;;;;2.67;2.40;;;;;;;27.27;28.34;99121.00;7238595;40;20276;31
2023/06/15 17:37:49;;;;;;;3.65;2.72;;;;;;;27.22;29.11;99118.22;7286770;39;20245;31
2023/06/15 17:43:26;;;;;;;5.85;2.80;;;;;;;27.18;28.37;99121.81;7270944;39;20315;31
2023/06/15 17:49:01;;;;;;;4.96;2.90;;;;;;;27.01;29.08;99124.87;7295963;39;20419;31
2023/06/15 17:54:36;;;;;;;3.03;2.67;;;;;;;26.91;29.41;99122.09;7238081;40;20250;31
2023/06/15 18:00:12;;;;;;;2.85;2.55;;;;;;;26.73;29.68;99120.62;7240247;40;20352;31
2023/06/15 18:10:37;;;;;;;8.15;2.75;;;;;;;26.56;30.43;99128.34;7252514;39;21387;31
2023/06/15 18:16:14;;;;;;;5.55;2.85;;;;;;;26.50;30.20;99123.91;7281518;39;20265;31
2023/06/15 18:26:52;;;;;;;3.78;2.70;;;;;;;26.52;31.29;99121.69;7320591;39;21358;31
2023/06/15 18:37:36;;;;;;;4.40;2.90;;;;;;;26.38;31.40;99126.06;7289240;39;21333;31
2023/06/15 18:47:55;;;;;;;3.95;2.80;;;;;;;26.17;32.25;99129.81;7323957;39;21147;31
2023/06/15 18:53:31;;;;;;;5.05;2.60;;;;;;;25.95;32.97;99136.34;7337466;39;20273;31
2023/06/15 19:04:10;;;;;;;4.65;2.80;;;;;;;25.62;35.10;99133.94;7340411;39;21283;31
2023/06/15 19:09:46;;;;;;;5.00;2.60;;;;;;;25.36;35.78;99134.81;7313380;39;20219;31
2023/06/15 19:15:19;;;;;;;3.00;2.66;;;;;;;25.07;36.52;99135.13;7267365;39;20446;31
2023/06/15 19:20:39;;;;;;;6.03;2.83;;;;;;;24.86;35.60;99135.19;7259031;39;20249;31
2023/06/15 19:26:16;;;;;;;4.53;3.00;;;;;;;24.67;35.21;99140.19;7255935;40;20253;31
2023/06/15 19:31:36;;;;;;;3.53;2.78;;;;;;;24.61;35.32;99147.59;7236911;40;20253;31
2023/06/15 19:37:12;;;;;;;3.72;3.20;;;;;;;24.52;35.40;99151.91;7265091;40;20237;31
2023/06/15 19:42:48;;;;;;;4.05;2.80;;;;;;;24.42;35.72;99160.03;7265911;40;20245;31
2023/06/15 19:48:08;;;;;;;5.40;3.00;;;;;;;24.45;35.87;99164.19;7278140;40;20441;31
2023/06/15 19:53:43;;;;;;;3.33;2.90;;;;;;;24.38;35.94;99156.16;7257351;40;20241;31
2023/06/15 19:59:19;;;;;;;4.12;3.10;;;;;;;24.32;35.60;99172.84;7251742;40;20350;31
2023/06/15 20:04:39;;;;;;;3.30;3.00;;;;;;;24.27;35.30;99176.38;7262497;40;20320;31
2023/06/15 20:10:00;;;;;;;6.20;3.37;;;;;;;24.26;35.60;99185.75;7229062;40;20248;31
2023/06/15 20:15:36;;;;;;;5.65;3.00;;;;;;;24.16;35.10;99180.94;7246268;40;20260;31
2023/06/15 20:21:11;;;;;;;3.97;3.23;;;;;;;24.05;36.39;99181.00;7283203;40;20300;31
2023/06/15 20:26:46;;;;;;;4.65;3.10;;;;;;;23.91;35.77;99188.81;7316063;39;20399;31
2023/06/15 20:32:24;;;;;;;4.80;3.30;;;;;;;23.82;36.25;99187.59;7308254;39;20256;31
2023/06/15 20:37:55;;;;;;;4.55;3.30;;;;;;;23.74;36.96;99197.06;7265091;39;20246;31
2023/06/15 20:43:15;;;;;;;7.22;3.60;;;;;;;23.59;37.65;99190.50;7205551;40;20242;31
2023/06/15 20:48:52;;;;;;;10.92;3.72;;;;;;;23.34;38.40;99196.41;7211795;40;20312;31
2023/06/15 20:54:13;;;;;;;5.85;3.12;;;;;;;23.19;38.28;99191.47;7268578;39;20244;31
2023/06/15 20:59:48;;;;;;;16.70;3.70;;;;;;;23.09;39.22;99194.03;7315474;39;20276;31
2023/06/15 21:05:22;;;;;;;21.63;4.00;;;;;;;22.85;39.34;99200.75;7291332;39;20233;31
2023/06/15 21:10:42;;;;;;;9.02;3.33;;;;;;;22.72;39.57;99192.78;7278955;39;20246;31
2023/06/15 21:16:17;;;;;;;10.60;3.70;;;;;;;22.67;40.05;99196.25;7247154;40;20257;31
2023/06/15 21:21:50;;;;;;;8.13;3.12;;;;;;;22.67;40.16;99203.66;7014510;40;20268;31
2023/06/15 21:27:25;;;;;;;6.22;3.00;;;;;;;22.68;39.96;99208.91;7193138;40;20251;31
2023/06/15 21:33:00;;;;;;;5.50;3.50;;;;;;;22.67;38.56;99200.91;7221292;40;20242;31
2023/06/15 21:38:36;;;;;;;4.40;3.13;;;;;;;22.63;38.33;99206.06;7167944;40;20325;31
2023/06/15 21:44:11;;;;;;;5.03;3.30;;;;;;;22.56;39.09;99199.00;7182033;40;20337;31
2023/06/15 21:54:51;;;;;;;4.80;3.30;;;;;;;22.41;38.14;99205.88;7305869;39;20395;31
2023/06/15 22:00:26;;;;;;;4.40;3.45;;;;;;;22.35;38.30;99211.50;7304244;39;20265;31
2023/06/15 22:11:18;;;;;;;3.90;3.20;;;;;;;22.13;38.47;99214.03;7339924;39;21010;31
2023/06/15 22:21:53;;;;;;;6.95;3.35;;;;;;;21.97;39.05;99212.03;7282960;39;21158;31
2023/06/15 22:32:34;;;;;;;5.25;3.70;;;;;;;21.67;39.64;99222.28;7318100;39;21434;31
2023/06/15 22:37:55;;;;;;;5.10;3.60;;;;;;;21.57;39.83;99209.97;7304239;39;20237;31
2023/06/15 22:43:15;;;;;;;3.95;3.47;;;;;;;21.54;39.73;99206.88;7306381;39;20235;31
2023/06/15 22:48:50;;;;;;;5.12;3.95;;;;;;;21.41;39.99;99201.63;7320477;39;20240;31
2023/06/15 22:54:25;;;;;;;4.40;3.85;;;;;;;21.31;40.29;99215.06;7291431;39;20253;31
2023/06/15 23:00:00;;;;;;;5.15;3.55;;;;;;;21.11;41.09;99207.09;7273572;39;20493;31
2023/06/15 23:05:35;;;;;;;4.20;3.75;;;;;;;21.06;40.85;99201.50;7247291;40;20249;31
2023/06/15 23:10:56;;;;;;;5.87;4.03;;;;;;;20.90;41.35;99210.38;7268813;40;20363;31
2023/06/15 23:21:40;;;;;;;4.75;3.70;;;;;;;20.38;41.73;99195.50;7292945;40;20369;31
2023/06/15 23:31:59;;;;;;;7.10;3.80;;;;;;;20.07;43.04;99200.03;7260483;39;21046;31
2023/06/15 23:37:34;;;;;;;4.65;3.50;;;;;;;19.85;44.19;99200.69;7298692;39;20494;31
2023/06/15 23:42:55;;;;;;;4.40;3.60;;;;;;;19.96;42.81;99191.75;7263273;40;20273;31
2023/06/15 23:48:13;;;;;;;5.60;3.80;;;;;;;19.86;43.40;99186.81;7297434;39;20334;31
2023/06/15 23:53:46;;;;;;;8.97;3.70;;;;;;;19.85;43.18;99181.56;7285748;40;20242;31
2023/06/15 23:59:07;;;;;;;5.27;3.80;;;;;;;19.86;43.44;99191.44;7280949;39;20248;31
